Time;durP1;ratioP1;P1;durP2;ratioP2;P2;SDS_P1;SDS_P2;PMS_P1;PMS_P2;Temp;Humidity;BMP_temperature;BMP_pressure;BME280_temperature;BME280_humidity;BME280_pressure;Samples;Min_cycle;Max_cycle;Signal;HPM_P1;HPM_P2
2023/08/22 00:00:29;;;;;;;12.40;2.70;;;25.80;59.50;;;;;;5066361;28;20817;-51
2023/08/22 00:02:56;;;;;;;11.13;2.70;;;25.80;59.40;;;;;;5050724;28;20028;-51
2023/08/22 00:05:22;;;;;;;7.63;2.30;;;25.80;59.50;;;;;;5054160;28;20029;-53
2023/08/22 00:07:49;;;;;;;13.25;2.40;;;25.80;59.20;;;;;;5068423;28;20031;-52
2023/08/22 00:10:16;;;;;;;9.05;2.22;;;25.70;58.90;;;;;;5068062;28;20090;-52
2023/08/22 00:12:43;;;;;;;10.52;2.72;;;25.70;59.40;;;;;;5068215;28;20111;-49
2023/08/22 00:15:10;;;;;;;9.73;2.50;;;25.70;59.40;;;;;;5053661;28;20029;-51
2023/08/22 00:17:40;;;;;;;10.25;2.65;;;25.70;59.50;;;;;;5055324;28;20024;-55
2023/08/22 00:20:09;;;;;;;13.43;2.38;;;25.70;59.50;;;;;;5059876;28;20587;-53
2023/08/22 00:22:36;;;;;;;13.15;2.50;;;25.70;59.30;;;;;;5054226;28;20025;-52
2023/08/22 00:25:02;;;;;;;7.13;2.10;;;25.80;59.10;;;;;;5053723;28;20075;-48
2023/08/22 00:27:28;;;;;;;10.82;2.50;;;25.80;58.50;;;;;;5054154;28;20028;-54
2023/08/22 00:29:56;;;;;;;6.63;2.15;;;25.80;58.90;;;;;;5054066;28;20495;-51
2023/08/22 00:32:25;;;;;;;8.05;2.45;;;25.80;59.10;;;;;;5036434;28;20035;-51
2023/08/22 00:34:52;;;;;;;8.00;2.33;;;25.90;58.90;;;;;;5053707;28;20036;-54
2023/08/22 00:37:19;;;;;;;7.50;2.03;;;25.90;59.00;;;;;;5036115;28;20096;-47
2023/08/22 00:39:45;;;;;;;7.80;2.03;;;25.80;59.00;;;;;;5053848;28;20036;-48
2023/08/22 00:42:11;;;;;;;5.80;2.00;;;25.80;59.00;;;;;;5051940;28;20092;-52
2023/08/22 00:44:38;;;;;;;6.32;2.00;;;25.80;59.10;;;;;;5073483;28;20032;-53
2023/08/22 00:47:04;;;;;;;8.30;2.03;;;25.90;59.30;;;;;;5055942;28;20021;-53
2023/08/22 00:49:31;;;;;;;7.60;1.92;;;25.80;59.20;;;;;;5055842;28;20032;-52
2023/08/22 00:51:59;;;;;;;7.38;2.10;;;25.80;59.30;;;;;;5073622;28;20423;-55
2023/08/22 00:54:29;;;;;;;5.00;1.98;;;25.80;59.30;;;;;;5073264;28;20037;-53
2023/08/22 00:56:56;;;;;;;7.88;2.03;;;25.80;59.40;;;;;;5073689;28;20037;-51
2023/08/22 00:59:26;;;;;;;5.30;2.25;;;25.80;59.40;;;;;;5055643;28;20016;-51
2023/08/22 01:01:52;;;;;;;9.05;2.38;;;25.80;59.50;;;;;;5073528;28;20024;-54
2023/08/22 01:04:19;;;;;;;6.57;2.13;;;25.80;59.30;;;;;;5073077;28;20035;-53
2023/08/22 01:06:45;;;;;;;6.82;2.42;;;25.80;59.30;;;;;;5055443;28;20039;-49
2023/08/22 01:09:31;;;;;;;4.18;1.83;;;25.80;59.30;;;;;;5055390;28;20029;-51
2023/08/22 01:12:22;;;;;;;6.03;2.03;;;25.80;59.40;;;;;;5073314;28;20115;-49
2023/08/22 01:14:59;;;;;;;8.13;2.30;;;25.80;59.50;;;;;;5072733;28;20394;-48
2023/08/22 01:17:26;;;;;;;7.13;2.00;;;25.80;59.60;;;;;;5073248;28;20157;-49
2023/08/22 01:19:52;;;;;;;7.00;1.90;;;25.80;59.50;;;;;;5073291;28;20082;-54
2023/08/22 01:22:24;;;;;;;6.63;2.10;;;25.80;59.70;;;;;;5073067;28;20054;-48
2023/08/22 01:24:49;;;;;;;6.82;2.10;;;25.80;59.60;;;;;;5054858;28;20551;-48
2023/08/22 01:27:18;;;;;;;5.28;2.35;;;25.80;59.70;;;;;;5072983;28;20103;-54
2023/08/22 01:29:55;;;;;;;7.20;2.08;;;25.80;59.70;;;;;;5038508;28;20035;-54
2023/08/22 01:32:36;;;;;;;6.65;2.00;;;25.80;60.10;;;;;;5055154;28;20028;-54
2023/08/22 01:35:05;;;;;;;4.10;1.60;;;25.80;59.50;;;;;;5072522;28;20108;-51
2023/08/22 01:37:31;;;;;;;7.87;2.20;;;25.80;59.70;;;;;;5054969;28;20154;-49
2023/08/22 01:39:59;;;;;;;5.80;1.90;;;25.80;59.80;;;;;;5072744;28;20025;-52
2023/08/22 01:42:25;;;;;;;5.70;1.95;;;25.80;59.70;;;;;;5055022;28;20487;-51
2023/08/22 01:44:51;;;;;;;6.40;2.15;;;25.80;59.70;;;;;;5072289;28;20043;-50
2023/08/22 01:47:17;;;;;;;3.58;1.85;;;25.80;59.80;;;;;;5072563;28;20484;-52
2023/08/22 01:49:45;;;;;;;7.18;2.20;;;25.80;59.80;;;;;;5072556;28;20033;-47
2023/08/22 01:52:11;;;;;;;6.05;1.80;;;25.80;59.90;;;;;;5072434;28;20499;-54
2023/08/22 01:54:38;;;;;;;8.73;2.42;;;25.80;59.90;;;;;;5053284;28;20475;-54
2023/08/22 01:57:04;;;;;;;6.78;2.20;;;25.80;59.70;;;;;;5072408;28;20032;-50
2023/08/22 01:59:30;;;;;;;4.90;1.90;;;25.80;59.70;;;;;;5054482;28;20034;-51
2023/08/22 02:01:55;;;;;;;5.38;1.80;;;25.80;59.70;;;;;;5054597;28;20411;-52
2023/08/22 02:04:21;;;;;;;8.88;2.28;;;25.80;59.70;;;;;;5071934;28;20036;-47
2023/08/22 02:06:48;;;;;;;5.57;1.98;;;25.80;59.70;;;;;;5054280;28;20036;-53
2023/08/22 02:09:14;;;;;;;5.13;1.90;;;25.80;59.80;;;;;;5054244;28;20044;-53
2023/08/22 02:11:40;;;;;;;8.90;2.10;;;25.80;59.90;;;;;;5054308;28;20080;-52
2023/08/22 02:14:06;;;;;;;7.80;1.67;;;25.80;59.90;;;;;;5071618;28;20028;-51
2023/08/22 02:16:33;;;;;;;7.28;2.50;;;25.70;59.80;;;;;;5054259;28;20025;-50
2023/08/22 02:19:00;;;;;;;6.05;2.00;;;25.70;59.60;;;;;;5054237;28;20468;-54
2023/08/22 02:21:25;;;;;;;9.50;2.22;;;25.70;59.70;;;;;;5054100;28;20059;-50
2023/08/22 02:23:51;;;;;;;9.55;2.13;;;25.70;59.60;;;;;;5071639;28;20032;-48
2023/08/22 02:26:17;;;;;;;7.30;2.30;;;25.70;59.40;;;;;;5054170;28;20036;-51
2023/08/22 02:28:43;;;;;;;8.07;2.00;;;25.70;59.50;;;;;;5053996;28;20510;-53
2023/08/22 02:31:09;;;;;;;8.55;2.40;;;25.80;59.60;;;;;;5054068;28;20092;-54
2023/08/22 02:33:35;;;;;;;6.45;2.00;;;25.70;59.50;;;;;;5071297;28;20024;-52
2023/08/22 02:36:00;;;;;;;7.40;2.38;;;25.70;59.60;;;;;;5071707;28;20099;-51
2023/08/22 02:38:27;;;;;;;7.63;2.13;;;25.80;59.60;;;;;;5053874;28;20034;-50
2023/08/22 02:40:52;;;;;;;11.85;2.38;;;25.80;59.80;;;;;;5071707;28;20031;-50
2023/08/22 02:43:18;;;;;;;5.70;2.05;;;25.70;59.60;;;;;;5053580;28;20403;-48
2023/08/22 02:45:45;;;;;;;5.28;2.17;;;25.70;59.50;;;;;;5071726;28;20035;-47
2023/08/22 02:48:11;;;;;;;10.95;2.30;;;25.70;60.30;;;;;;5053756;28;20035;-55
2023/08/22 02:50:37;;;;;;;8.43;2.60;;;25.70;59.70;;;;;;5071505;28;20099;-53
2023/08/22 02:53:04;;;;;;;9.95;2.30;;;25.70;59.90;;;;;;5053374;28;20495;-52
2023/08/22 02:55:31;;;;;;;8.25;2.45;;;25.70;59.80;;;;;;5071526;28;20055;-54
2023/08/22 02:57:58;;;;;;;6.95;2.03;;;25.70;59.70;;;;;;5071632;28;20048;-52
2023/08/22 03:00:23;;;;;;;5.07;1.85;;;25.70;59.80;;;;;;5053599;28;20031;-54
2023/08/22 03:02:49;;;;;;;5.20;1.83;;;25.70;59.80;;;;;;5071594;28;20541;-52
2023/08/22 03:05:16;;;;;;;7.20;2.20;;;25.70;59.80;;;;;;5052840;28;20025;-53
2023/08/22 03:07:44;;;;;;;5.65;1.90;;;25.80;59.80;;;;;;5053678;28;20506;-47
2023/08/22 03:10:12;;;;;;;5.05;1.90;;;25.70;59.80;;;;;;5053491;28;20111;-53
2023/08/22 03:12:38;;;;;;;9.32;2.40;;;25.70;59.80;;;;;;5053654;28;20103;-51
2023/08/22 03:15:05;;;;;;;5.65;2.15;;;25.80;59.90;;;;;;5053121;28;20040;-52
2023/08/22 03:17:34;;;;;;;5.93;1.85;;;25.70;59.80;;;;;;5037443;28;20384;-55
2023/08/22 03:20:00;;;;;;;5.72;1.95;;;25.70;60.00;;;;;;5052041;28;20036;-49
2023/08/22 03:22:27;;;;;;;7.63;1.98;;;25.70;60.00;;;;;;5053294;28;20449;-51
2023/08/22 03:24:53;;;;;;;10.05;2.30;;;25.70;59.80;;;;;;5052948;28;20116;-51
2023/08/22 03:27:22;;;;;;;6.55;2.03;;;25.70;59.80;;;;;;5053384;28;20146;-54
2023/08/22 03:29:47;;;;;;;7.60;1.90;;;25.70;60.00;;;;;;5071236;28;20125;-49
2023/08/22 03:32:14;;;;;;;8.50;2.35;;;25.80;60.00;;;;;;5053268;28;20032;-51
2023/08/22 03:34:39;;;;;;;4.72;1.80;;;25.70;59.80;;;;;;5052783;28;20033;-50
2023/08/22 03:37:06;;;;;;;6.25;2.25;;;25.70;60.00;;;;;;5053266;28;20066;-52
2023/08/22 03:39:32;;;;;;;10.50;2.47;;;25.70;60.10;;;;;;5053278;28;20025;-49
2023/08/22 03:41:58;;;;;;;5.80;2.05;;;25.80;60.10;;;;;;5053191;28;20024;-54
2023/08/22 03:44:24;;;;;;;7.00;2.38;;;25.80;60.20;;;;;;5070895;28;20037;-54
2023/08/22 03:46:50;;;;;;;11.52;2.58;;;25.70;60.00;;;;;;5053223;28;20082;-54
2023/08/22 03:49:31;;;;;;;5.65;2.05;;;25.70;59.70;;;;;;5069802;28;20416;-54
2023/08/22 03:51:57;;;;;;;7.82;2.20;;;25.70;59.80;;;;;;5053114;28;20047;-53
2023/08/22 03:54:22;;;;;;;5.70;2.10;;;25.70;59.80;;;;;;5052653;28;20150;-51
2023/08/22 03:56:48;;;;;;;7.07;2.20;;;25.70;59.90;;;;;;5053030;28;20056;-54
2023/08/22 03:59:14;;;;;;;4.75;2.08;;;25.70;59.80;;;;;;5069703;28;20033;-54
2023/08/22 04:01:40;;;;;;;6.30;2.47;;;25.70;59.90;;;;;;5070889;28;20132;-54
2023/08/22 04:04:06;;;;;;;8.13;2.35;;;25.70;60.00;;;;;;5052676;28;20020;-53
2023/08/22 04:06:31;;;;;;;7.15;2.40;;;25.70;60.00;;;;;;5053141;28;20111;-52
2023/08/22 04:08:57;;;;;;;6.57;2.63;;;25.70;60.00;;;;;;5069555;28;20040;-49
2023/08/22 04:11:23;;;;;;;6.25;2.63;;;25.70;59.80;;;;;;5070848;28;20035;-50
2023/08/22 04:13:49;;;;;;;7.28;3.03;;;25.70;60.00;;;;;;5052537;28;20062;-52
2023/08/22 04:16:14;;;;;;;6.88;3.10;;;25.70;59.90;;;;;;5070795;28;20033;-54
2023/08/22 04:18:40;;;;;;;5.80;2.67;;;25.70;60.00;;;;;;5055686;28;20021;-54
2023/08/22 04:21:07;;;;;;;6.65;2.90;;;25.70;60.20;;;;;;5074317;28;20043;-54
2023/08/22 04:23:33;;;;;;;6.57;2.40;;;25.70;60.10;;;;;;5056132;28;20033;-54
2023/08/22 04:25:59;;;;;;;7.35;2.70;;;25.70;60.10;;;;;;5073171;28;20077;-48
2023/08/22 04:28:25;;;;;;;5.35;2.33;;;25.70;60.00;;;;;;5056357;28;20081;-53
2023/08/22 04:30:56;;;;;;;7.07;2.80;;;25.70;60.10;;;;;;5056219;28;20063;-54
2023/08/22 04:33:22;;;;;;;5.30;2.63;;;25.70;59.90;;;;;;5055815;28;20036;-55
2023/08/22 04:35:49;;;;;;;8.43;2.92;;;25.70;59.90;;;;;;5056157;28;20028;-54
2023/08/22 04:38:15;;;;;;;10.00;3.08;;;25.70;60.30;;;;;;5056166;28;20024;-54
2023/08/22 04:40:45;;;;;;;7.45;3.03;;;25.70;59.90;;;;;;5056076;28;20028;-54
2023/08/22 04:43:20;;;;;;;6.13;3.00;;;25.70;60.00;;;;;;5055650;28;20075;-52
2023/08/22 04:45:49;;;;;;;6.32;2.58;;;25.70;60.10;;;;;;5073952;28;20048;-54
2023/08/22 04:48:15;;;;;;;6.90;2.63;;;25.70;60.20;;;;;;5055953;28;20021;-55
2023/08/22 04:50:41;;;;;;;6.45;2.70;;;25.70;60.10;;;;;;5055974;28;20025;-54
2023/08/22 04:53:07;;;;;;;5.80;2.90;;;25.70;60.10;;;;;;5073440;28;20395;-52
2023/08/22 04:55:34;;;;;;;7.38;2.80;;;25.70;59.70;;;;;;5055616;28;20044;-52
2023/08/22 04:57:59;;;;;;;8.68;2.88;;;25.70;60.10;;;;;;5055891;28;20033;-53
2023/08/22 05:00:25;;;;;;;7.28;3.20;;;25.70;59.90;;;;;;5055788;28;20059;-52
2023/08/22 05:02:51;;;;;;;6.45;2.80;;;25.70;60.00;;;;;;5055684;28;20431;-55
2023/08/22 05:05:17;;;;;;;8.10;3.05;;;25.70;59.80;;;;;;5072079;28;20036;-50
2023/08/22 05:07:43;;;;;;;9.57;2.97;;;25.70;59.70;;;;;;5073574;28;20029;-53
2023/08/22 05:10:09;;;;;;;6.80;2.70;;;25.70;59.70;;;;;;5055435;28;20499;-54
2023/08/22 05:12:35;;;;;;;7.50;2.95;;;25.70;59.50;;;;;;5073291;28;20562;-53
2023/08/22 05:15:02;;;;;;;8.15;2.90;;;25.70;59.50;;;;;;5055004;28;20407;-52
2023/08/22 05:17:29;;;;;;;7.13;2.70;;;25.70;59.60;;;;;;5055443;28;20029;-53
2023/08/22 05:19:55;;;;;;;7.22;2.90;;;25.70;59.60;;;;;;5072170;28;20029;-54
2023/08/22 05:22:20;;;;;;;7.07;2.85;;;25.70;59.40;;;;;;5055298;28;20031;-50
2023/08/22 05:24:47;;;;;;;5.68;2.88;;;25.70;59.20;;;;;;5054919;28;20032;-48
2023/08/22 05:27:14;;;;;;;8.05;3.40;;;25.70;59.30;;;;;;5055341;28;20035;-51
2023/08/22 05:29:39;;;;;;;6.68;2.88;;;25.70;59.50;;;;;;5055115;28;20032;-53
2023/08/22 05:32:06;;;;;;;8.05;3.17;;;25.70;59.40;;;;;;5055215;28;20037;-49
2023/08/22 05:34:32;;;;;;;7.93;3.05;;;25.70;59.50;;;;;;5054681;28;20218;-55
2023/08/22 05:36:58;;;;;;;5.25;2.80;;;25.70;59.50;;;;;;5072803;28;20025;-52
2023/08/22 05:39:24;;;;;;;6.22;2.72;;;25.70;59.60;;;;;;5054921;28;20109;-55
2023/08/22 05:41:50;;;;;;;9.05;3.10;;;25.70;59.50;;;;;;5054898;28;20020;-50
2023/08/22 05:44:18;;;;;;;6.65;2.70;;;25.70;59.40;;;;;;5054373;28;20039;-50
2023/08/22 05:46:44;;;;;;;8.07;2.78;;;25.70;59.80;;;;;;5038176;28;20021;-47
2023/08/22 05:49:09;;;;;;;7.20;3.40;;;25.70;59.50;;;;;;5054280;28;20036;-47
2023/08/22 05:51:36;;;;;;;8.35;3.05;;;25.70;59.60;;;;;;5054737;28;20033;-49
2023/08/22 05:54:02;;;;;;;6.32;2.80;;;25.70;59.90;;;;;;5054173;28;20480;-47
2023/08/22 05:56:28;;;;;;;6.93;3.03;;;25.70;59.70;;;;;;5072504;28;20166;-48
2023/08/22 05:58:54;;;;;;;8.68;3.45;;;25.70;59.90;;;;;;5054593;28;20031;-50
2023/08/22 06:01:21;;;;;;;6.80;3.30;;;25.70;59.80;;;;;;5037884;28;20029;-49
2023/08/22 06:03:47;;;;;;;8.65;3.55;;;25.70;60.10;;;;;;5054204;28;20118;-51
2023/08/22 06:06:13;;;;;;;8.15;2.85;;;25.70;59.70;;;;;;5054484;28;20029;-51
2023/08/22 06:08:39;;;;;;;8.90;3.38;;;25.60;59.60;;;;;;5072172;28;20032;-51
2023/08/22 06:11:05;;;;;;;9.13;3.63;;;25.70;60.10;;;;;;5054510;28;20081;-50
2023/08/22 06:13:31;;;;;;;6.80;3.08;;;25.60;59.90;;;;;;5053829;28;20082;-47
2023/08/22 06:15:58;;;;;;;8.50;3.22;;;25.60;60.20;;;;;;5054165;28;20029;-49
2023/08/22 06:18:24;;;;;;;10.02;3.50;;;25.60;60.00;;;;;;5069787;22;20056;-42
2023/08/22 06:20:50;;;;;;;7.95;3.78;;;25.60;59.80;;;;;;5053578;28;20032;-43
2023/08/22 06:23:16;;;;;;;9.38;3.65;;;25.60;59.80;;;;;;5037443;28;20028;-42
2023/08/22 06:25:42;;;;;;;9.63;3.45;;;25.60;59.90;;;;;;5053889;28;20031;-42
2023/08/22 06:28:08;;;;;;;5.63;3.00;;;25.60;60.40;;;;;;5053864;28;20024;-44
2023/08/22 06:30:34;;;;;;;10.10;3.30;;;25.60;59.80;;;;;;5037395;28;20024;-45
2023/08/22 06:33:00;;;;;;;10.35;3.65;;;25.60;59.90;;;;;;5071630;28;20483;-46
2023/08/22 06:35:28;;;;;;;10.05;3.28;;;25.60;59.90;;;;;;5037299;28;20032;-45
2023/08/22 06:37:53;;;;;;;10.50;3.92;;;25.60;60.00;;;;;;5053269;28;20040;-44
2023/08/22 06:40:20;;;;;;;6.53;2.88;;;25.60;59.90;;;;;;5071175;28;20396;-44
2023/08/22 06:42:46;;;;;;;7.78;3.13;;;25.60;59.70;;;;;;5037230;28;20033;-45
2023/08/22 06:45:12;;;;;;;11.90;3.58;;;25.60;60.00;;;;;;5053313;28;20518;-42
2023/08/22 06:47:38;;;;;;;7.72;3.30;;;25.60;59.90;;;;;;5053713;28;20495;-46
2023/08/22 06:50:04;;;;;;;8.85;3.38;;;25.60;59.60;;;;;;5037097;28;20032;-45
2023/08/22 06:52:30;;;;;;;10.25;3.30;;;25.60;59.80;;;;;;5071578;28;20036;-42
2023/08/22 06:54:56;;;;;;;9.95;3.40;;;25.60;59.70;;;;;;5071664;28;20033;-49
2023/08/22 06:57:22;;;;;;;7.70;2.83;;;25.60;60.20;;;;;;5065305;28;20074;-45
2023/08/22 06:59:47;;;;;;;14.38;3.30;;;25.60;60.00;;;;;;5049905;28;20452;-47
2023/08/22 07:02:13;;;;;;;9.57;3.60;;;25.50;59.90;;;;;;5067472;28;20031;-47
2023/08/22 07:04:39;;;;;;;13.15;4.00;;;25.50;59.60;;;;;;5068048;28;20021;-42
2023/08/22 07:07:05;;;;;;;7.97;3.38;;;25.50;58.90;;;;;;5068722;28;20078;-46
2023/08/22 07:09:30;;;;;;;12.32;3.38;;;25.50;58.70;;;;;;5068678;28;20036;-45
2023/08/22 07:11:56;;;;;;;16.30;3.63;;;25.40;57.70;;;;;;5068485;28;20024;-45
2023/08/22 07:14:22;;;;;;;9.85;2.83;;;25.50;57.20;;;;;;5068721;28;20031;-43
2023/08/22 07:16:48;;;;;;;17.20;2.90;;;25.50;57.60;;;;;;5051104;28;20461;-43
2023/08/22 07:19:15;;;;;;;11.60;2.90;;;25.50;57.30;;;;;;5069083;28;20040;-42
2023/08/22 07:21:41;;;;;;;11.77;3.00;;;25.50;57.40;;;;;;5069228;28;20551;-43
2023/08/22 07:24:07;;;;;;;9.13;2.67;;;25.50;58.20;;;;;;5068817;28;20033;-44
2023/08/22 07:26:32;;;;;;;13.50;3.45;;;25.50;57.90;;;;;;5068440;28;20035;-42
2023/08/22 07:28:58;;;;;;;10.00;3.20;;;25.60;59.30;;;;;;5068600;28;20467;-49
2023/08/22 07:31:24;;;;;;;16.63;3.95;;;25.60;59.60;;;;;;5068524;28;20074;-42
2023/08/22 07:33:50;;;;;;;18.77;4.35;;;25.60;59.40;;;;;;5068379;28;20119;-44
2023/08/22 07:36:18;;;;;;;13.63;3.80;;;25.60;60.80;;;;;;5068818;28;20096;-42
2023/08/22 07:38:43;;;;;;;14.05;3.40;;;25.70;60.40;;;;;;5068708;28;20052;-42
2023/08/22 07:41:10;;;;;;;15.88;3.10;;;25.60;58.20;;;;;;5068086;28;20063;-42
2023/08/22 07:43:36;;;;;;;14.68;3.00;;;25.60;60.30;;;;;;5067690;28;20027;-42
2023/08/22 07:46:02;;;;;;;9.55;3.20;;;25.60;57.80;;;;;;5068687;28;20021;-42
2023/08/22 07:48:28;;;;;;;18.92;3.53;;;25.60;59.50;;;;;;5068564;28;20067;-42
2023/08/22 07:50:57;;;;;;;13.00;3.03;;;25.60;57.80;;;;;;5050260;28;20056;-42
2023/08/22 07:53:23;;;;;;;13.00;3.10;;;25.60;57.10;;;;;;5070830;28;20031;-43
2023/08/22 07:55:49;;;;;;;10.07;2.50;;;25.50;56.50;;;;;;5054729;28;20028;-47
2023/08/22 07:58:33;;;;;;;11.93;3.17;;;25.60;55.10;;;;;;5072167;28;20029;-42
2023/08/22 08:00:58;;;;;;;18.60;3.47;;;25.70;55.50;;;;;;5072261;28;20503;-41
2023/08/22 08:03:24;;;;;;;12.25;3.17;;;25.70;55.50;;;;;;5054151;28;20055;-42
2023/08/22 08:05:50;;;;;;;9.73;2.97;;;25.70;56.40;;;;;;5072283;28;20222;-44
2023/08/22 08:08:16;;;;;;;13.73;3.03;;;25.70;56.30;;;;;;5072171;28;20443;-43
2023/08/22 08:10:42;;;;;;;9.57;2.58;;;25.50;55.80;;;;;;5071972;28;20095;-42
2023/08/22 08:13:08;;;;;;;12.48;2.70;;;25.50;55.90;;;;;;5071583;28;20399;-44
2023/08/22 08:15:33;;;;;;;17.15;2.67;;;25.40;55.80;;;;;;5071870;28;20024;-42
2023/08/22 08:18:01;;;;;;;16.45;2.75;;;25.40;55.80;;;;;;5071427;28;20017;-41
2023/08/22 08:20:27;;;;;;;12.40;2.78;;;25.40;56.80;;;;;;5071967;28;20399;-42
2023/08/22 08:22:53;;;;;;;10.68;2.53;;;25.40;55.90;;;;;;5071694;28;20040;-42
2023/08/22 08:25:18;;;;;;;14.40;3.08;;;25.30;56.50;;;;;;5071397;28;20024;-42
2023/08/22 08:27:44;;;;;;;8.10;2.50;;;25.30;57.20;;;;;;5071637;28;20031;-42
2023/08/22 08:30:10;;;;;;;11.88;3.40;;;25.40;56.50;;;;;;5071720;28;20028;-45
2023/08/22 08:32:36;;;;;;;9.65;3.03;;;25.30;57.80;;;;;;5072036;28;20375;-43
2023/08/22 08:35:04;;;;;;;15.88;4.30;;;25.30;56.50;;;;;;5071046;28;20100;-41
2023/08/22 08:37:30;;;;;;;11.27;3.50;;;25.30;57.30;;;;;;5071133;28;20280;-45
2023/08/22 08:39:56;;;;;;;11.68;3.28;;;25.30;57.20;;;;;;5071163;28;20492;-45
2023/08/22 08:42:22;;;;;;;8.70;2.67;;;25.30;57.60;;;;;;5071468;28;20016;-42
2023/08/22 08:44:49;;;;;;;10.63;2.90;;;25.30;57.10;;;;;;5071310;28;20039;-42
2023/08/22 08:47:15;;;;;;;10.93;2.97;;;25.30;56.80;;;;;;5070515;28;20036;-46
2023/08/22 08:49:41;;;;;;;8.80;2.65;;;25.30;58.00;;;;;;5071386;28;20032;-44
2023/08/22 08:52:10;;;;;;;8.52;2.90;;;25.30;58.00;;;;;;5071224;28;20075;-47
2023/08/22 08:54:36;;;;;;;7.35;2.88;;;25.40;57.80;;;;;;5070910;28;20125;-47
2023/08/22 08:57:03;;;;;;;7.63;2.45;;;25.40;58.10;;;;;;5070671;28;20052;-42
2023/08/22 08:59:29;;;;;;;9.45;2.50;;;25.40;57.30;;;;;;5070789;28;20042;-45
2023/08/22 09:01:56;;;;;;;10.10;3.08;;;25.50;57.80;;;;;;5070967;28;20048;-45
2023/08/22 09:04:22;;;;;;;17.35;3.22;;;25.50;58.90;;;;;;5070060;28;20036;-45
2023/08/22 09:06:48;;;;;;;19.80;2.90;;;25.50;58.30;;;;;;5071116;28;20139;-50
2023/08/22 09:09:15;;;;;;;12.35;3.15;;;25.40;59.40;;;;;;5070945;28;20484;-47
2023/08/22 09:11:50;;;;;;;11.07;2.33;;;25.50;58.60;;;;;;5070868;28;20064;-48
2023/08/22 09:14:20;;;;;;;11.95;3.03;;;25.50;57.50;;;;;;5070502;28;20135;-41
2023/08/22 09:16:46;;;;;;;7.25;2.20;;;25.50;58.40;;;;;;5070865;28;20488;-42
2023/08/22 09:19:12;;;;;;;10.82;2.70;;;25.50;57.40;;;;;;5070568;28;20024;-42
2023/08/22 09:21:38;;;;;;;10.05;3.00;;;25.50;56.80;;;;;;5070616;28;20484;-42
2023/08/22 09:24:09;;;;;;;10.52;3.05;;;25.50;58.10;;;;;;5070115;28;20035;-42
2023/08/22 09:26:35;;;;;;;9.00;2.70;;;25.50;58.10;;;;;;5070695;28;20032;-42
2023/08/22 09:29:07;;;;;;;9.77;3.00;;;25.50;58.50;;;;;;5070471;28;20032;-41
2023/08/22 09:31:34;;;;;;;12.57;3.20;;;25.50;58.10;;;;;;5070532;28;20028;-42
2023/08/22 09:34:09;;;;;;;9.18;2.88;;;25.50;57.30;;;;;;5070209;28;20515;-43
2023/08/22 09:36:46;;;;;;;7.03;2.72;;;25.50;56.80;;;;;;5070050;28;20036;-42
2023/08/22 09:39:19;;;;;;;9.27;2.40;;;25.50;57.30;;;;;;5070796;28;20031;-42
2023/08/22 09:41:47;;;;;;;13.43;3.20;;;25.50;57.20;;;;;;5070328;28;20029;-42
2023/08/22 09:44:14;;;;;;;12.57;2.70;;;25.50;57.70;;;;;;5069585;28;20030;-42
2023/08/22 09:46:44;;;;;;;9.32;2.85;;;25.60;57.50;;;;;;5070283;28;20035;-46
2023/08/22 09:49:14;;;;;;;14.40;3.30;;;25.60;58.60;;;;;;5070033;28;20032;-43
2023/08/22 09:51:41;;;;;;;10.55;3.70;;;25.70;58.50;;;;;;5070214;28;20020;-42
2023/08/22 09:54:07;;;;;;;10.57;3.58;;;25.70;59.40;;;;;;5069788;28;20032;-42
2023/08/22 09:56:33;;;;;;;14.93;3.50;;;25.70;58.60;;;;;;5068108;28;20027;-42
2023/08/22 09:59:03;;;;;;;15.38;4.03;;;25.80;58.80;;;;;;5068417;28;20024;-42
2023/08/22 10:01:30;;;;;;;12.95;3.90;;;25.80;58.80;;;;;;5068740;28;20476;-43
2023/08/22 10:03:59;;;;;;;10.98;3.78;;;25.90;58.40;;;;;;5068216;28;20036;-41
2023/08/22 10:06:30;;;;;;;11.38;3.83;;;25.90;58.50;;;;;;5069058;28;20024;-42
2023/08/22 10:08:56;;;;;;;12.05;3.63;;;25.90;59.20;;;;;;5068351;28;20059;-44
2023/08/22 10:11:22;;;;;;;9.77;3.60;;;25.90;58.60;;;;;;5069606;28;20032;-42
2023/08/22 10:13:50;;;;;;;12.50;4.68;;;25.90;58.80;;;;;;5069447;28;20503;-41
2023/08/22 10:16:15;;;;;;;11.75;3.78;;;25.90;59.40;;;;;;5068913;28;20024;-42
2023/08/22 10:18:41;;;;;;;9.52;3.90;;;25.90;59.40;;;;;;5068968;28;20020;-41
2023/08/22 10:21:07;;;;;;;8.98;3.50;;;25.90;59.60;;;;;;5051401;28;20032;-42
2023/08/22 10:23:51;;;;;;;7.85;3.60;;;25.90;59.50;;;;;;5069282;28;20033;-42
2023/08/22 10:26:19;;;;;;;10.32;3.70;;;25.80;59.70;;;;;;5069107;28;20021;-42
2023/08/22 10:29:04;;;;;;;8.68;3.95;;;25.90;59.70;;;;;;5069347;28;20028;-44
2023/08/22 10:31:30;;;;;;;11.30;3.70;;;25.90;59.90;;;;;;5069397;28;20255;-42
2023/08/22 10:34:03;;;;;;;10.63;4.10;;;25.90;60.10;;;;;;5069183;28;20451;-46
2023/08/22 10:36:29;;;;;;;9.70;3.60;;;25.90;60.00;;;;;;5051540;28;20027;-44
2023/08/22 10:38:57;;;;;;;9.40;3.70;;;25.90;60.30;;;;;;5069222;28;20020;-44
2023/08/22 10:41:44;;;;;;;10.88;4.10;;;25.90;60.00;;;;;;5069049;28;20020;-42
2023/08/22 10:44:26;;;;;;;10.60;3.72;;;25.90;60.10;;;;;;5069075;28;20039;-41
2023/08/22 10:47:04;;;;;;;8.45;3.60;;;25.90;60.20;;;;;;5068928;28;20055;-41
2023/08/22 10:49:32;;;;;;;10.45;4.13;;;25.90;60.20;;;;;;5069178;28;20035;-42
2023/08/22 10:52:11;;;;;;;10.75;4.10;;;25.90;60.70;;;;;;5051058;28;20034;-44
2023/08/22 10:54:56;;;;;;;11.88;4.97;;;25.80;60.50;;;;;;5051053;28;20033;-42
2023/08/22 10:57:21;;;;;;;12.45;5.90;;;25.80;60.60;;;;;;5069050;28;20031;-43
2023/08/22 10:59:59;;;;;;;12.07;4.53;;;25.80;60.60;;;;;;5069109;28;20025;-42
2023/08/22 11:02:37;;;;;;;9.65;4.47;;;25.80;60.60;;;;;;5069130;28;20082;-42
2023/08/22 11:05:08;;;;;;;9.82;4.03;;;25.80;60.60;;;;;;5050968;28;20075;-45
2023/08/22 11:07:34;;;;;;;11.57;4.03;;;25.80;60.60;;;;;;5069237;28;20028;-47
2023/08/22 11:10:00;;;;;;;9.35;3.78;;;25.80;60.70;;;;;;5050980;28;20020;-47
2023/08/22 11:12:28;;;;;;;8.10;3.92;;;25.80;60.70;;;;;;5068917;28;20492;-45
2023/08/22 11:14:57;;;;;;;8.68;4.10;;;25.80;60.70;;;;;;5050560;28;20035;-46
2023/08/22 11:17:23;;;;;;;8.88;3.78;;;25.90;60.80;;;;;;5068736;28;20033;-45
2023/08/22 11:19:52;;;;;;;10.00;3.70;;;25.90;60.80;;;;;;5068833;28;20020;-46
2023/08/22 11:22:17;;;;;;;6.63;3.72;;;25.80;60.70;;;;;;5068847;28;20025;-43
2023/08/22 11:24:49;;;;;;;6.75;3.53;;;25.90;60.80;;;;;;5067714;28;20016;-47
2023/08/22 11:27:17;;;;;;;8.77;3.67;;;25.90;60.80;;;;;;5048823;28;20055;-46
2023/08/22 11:29:51;;;;;;;8.57;3.72;;;25.90;60.90;;;;;;5072588;28;20028;-47
2023/08/22 11:32:28;;;;;;;7.53;3.42;;;25.90;60.90;;;;;;5072774;28;20208;-48
2023/08/22 11:34:57;;;;;;;8.93;3.47;;;25.90;61.60;;;;;;5071641;28;20162;-50
2023/08/22 11:37:25;;;;;;;16.50;3.97;;;25.90;61.10;;;;;;5071910;28;20017;-48
2023/08/22 11:39:52;;;;;;;10.77;3.45;;;25.90;61.60;;;;;;5072095;28;20697;-44
2023/08/22 11:42:19;;;;;;;11.88;3.72;;;25.90;61.50;;;;;;5072557;28;20127;-48
2023/08/22 11:45:03;;;;;;;19.70;4.75;;;25.90;61.60;;;;;;5068999;28;20491;-42
2023/08/22 11:47:49;;;;;;;18.35;3.78;;;25.90;62.60;;;;;;5068578;28;20407;-45
2023/08/22 11:50:20;;;;;;;10.20;3.50;;;25.90;62.20;;;;;;5069533;28;20112;-45
2023/08/22 11:52:54;;;;;;;8.63;2.97;;;25.90;62.10;;;;;;5069968;28;20090;-42
2023/08/22 11:55:26;;;;;;;14.98;2.78;;;25.80;60.40;;;;;;5047525;28;20031;-44
2023/08/22 11:57:58;;;;;;;14.13;3.00;;;25.70;59.10;;;;;;5069788;28;20020;-42
2023/08/22 12:00:29;;;;;;;9.20;2.80;;;25.70;58.60;;;;;;5070579;28;20028;-43
2023/08/22 12:02:57;;;;;;;10.95;2.70;;;25.60;58.00;;;;;;5069404;28;20016;-45
2023/08/22 12:05:30;;;;;;;9.55;3.35;;;25.60;58.20;;;;;;5050604;28;20446;-43
2023/08/22 12:08:00;;;;;;;10.60;2.80;;;25.60;58.00;;;;;;5070771;28;20082;-42
2023/08/22 12:10:41;;;;;;;12.05;2.92;;;25.60;57.50;;;;;;5070941;28;20027;-45
2023/08/22 12:13:07;;;;;;;10.15;2.63;;;25.60;58.00;;;;;;5071062;28;20410;-43
2023/08/22 12:15:33;;;;;;;10.43;2.95;;;25.70;57.80;;;;;;5071780;28;20020;-41
2023/08/22 12:17:59;;;;;;;13.55;3.00;;;25.70;57.60;;;;;;5071726;28;20071;-41
2023/08/22 12:20:25;;;;;;;12.20;3.00;;;25.70;57.30;;;;;;5083017;23;20052;-46
2023/08/22 12:22:51;;;;;;;16.52;3.13;;;25.70;57.50;;;;;;5053725;28;20434;-48
2023/08/22 12:25:17;;;;;;;18.05;3.10;;;25.70;58.10;;;;;;5062665;28;20078;-42
2023/08/22 12:27:43;;;;;;;18.02;3.22;;;25.70;57.80;;;;;;5072050;28;20028;-45
2023/08/22 12:30:09;;;;;;;14.95;2.75;;;25.60;57.70;;;;;;5056225;28;20079;-43
2023/08/22 12:32:35;;;;;;;14.85;2.70;;;25.60;56.00;;;;;;5032327;28;20329;-46
2023/08/22 12:35:03;;;;;;;10.00;2.78;;;25.60;54.50;;;;;;5022749;28;20108;-43
2023/08/22 12:37:29;;;;;;;8.93;3.00;;;25.60;54.50;;;;;;4997318;28;20029;-46
2023/08/22 12:39:55;;;;;;;12.98;2.78;;;25.60;56.40;;;;;;5020581;28;20017;-45
2023/08/22 12:42:21;;;;;;;13.57;2.65;;;25.60;54.80;;;;;;5016159;28;20047;-44
2023/08/22 12:44:47;;;;;;;9.20;2.42;;;25.60;55.20;;;;;;5035773;28;20040;-42